Thiensville, Wisconsin
Current Conditions -  °F | °C
As of 6:45 AM on Friday 31 Oct 2014 (Local Time) from KMWC Reporting Station
Broken Clouds Broken Clouds  
Wind Chill: 23°   Ceiling: 6500
Heat Index: 34°   Visibility: 10mi
Dew Point: 28°   Wind: 17mph
Humidity: 81%   Direction: 340°NNW
Pressure: 30.11"   Gusts: 23mph
Location:  43.24°N, 87.98°W
Report Text: KMWC 311145Z AUTO 34015G20KT 10SM SCT028 SCT055 BKN065 01/M02 A3011 RMK FIRST
Loading
Personal Weather Stations






























Interactive Weather Map
Tropical Storm Tracking
New forecast layout! Learn more

10-Day Weather Forecast

Advertisements
Track Severe Weather on mobile